sensor_id;sensor_type;location;lat;lon;timestamp;temperature;humidity
2439;DHT22;14509;47.992;7.848;2023-04-25T00:00:28;15.30;42.90
2439;DHT22;14509;47.992;7.848;2023-04-25T00:02:30;15.20;42.90
2439;DHT22;14509;47.992;7.848;2023-04-25T00:04:34;14.80;42.60
2439;DHT22;14509;47.992;7.848;2023-04-25T00:06:38;15.10;42.40
2439;DHT22;14509;47.992;7.848;2023-04-25T00:08:40;14.90;42.20
2439;DHT22;14509;47.992;7.848;2023-04-25T00:10:42;14.90;42.70
2439;DHT22;14509;47.992;7.848;2023-04-25T00:12:44;14.90;42.70
2439;DHT22;14509;47.992;7.848;2023-04-25T00:14:46;15.00;42.80
2439;DHT22;14509;47.992;7.848;2023-04-25T00:16:50;15.00;43.40
2439;DHT22;14509;47.992;7.848;2023-04-25T00:18:52;15.00;42.80
2439;DHT22;14509;47.992;7.848;2023-04-25T00:20:55;15.10;42.90
2439;DHT22;14509;47.992;7.848;2023-04-25T00:22:57;15.10;42.90
2439;DHT22;14509;47.992;7.848;2023-04-25T00:24:59;15.10;43.50
2439;DHT22;14509;47.992;7.848;2023-04-25T00:27:01;15.10;43.60
2439;DHT22;14509;47.992;7.848;2023-04-25T00:29:03;15.10;44.00
2439;DHT22;14509;47.992;7.848;2023-04-25T00:31:05;15.10;44.00
2439;DHT22;14509;47.992;7.848;2023-04-25T00:33:07;15.10;44.00
2439;DHT22;14509;47.992;7.848;2023-04-25T00:35:09;15.10;44.10
2439;DHT22;14509;47.992;7.848;2023-04-25T00:37:12;15.00;44.20
2439;DHT22;14509;47.992;7.848;2023-04-25T00:39:14;15.20;44.40
2439;DHT22;14509;47.992;7.848;2023-04-25T00:41:16;15.00;44.40
2439;DHT22;14509;47.992;7.848;2023-04-25T00:43:18;15.00;44.50
2439;DHT22;14509;47.992;7.848;2023-04-25T00:45:20;15.00;44.70
2439;DHT22;14509;47.992;7.848;2023-04-25T00:47:22;14.90;44.80
2439;DHT22;14509;47.992;7.848;2023-04-25T00:49:25;14.90;45.00
2439;DHT22;14509;47.992;7.848;2023-04-25T00:51:27;14.80;45.00
2439;DHT22;14509;47.992;7.848;2023-04-25T00:53:32;15.40;45.90
2439;DHT22;14509;47.992;7.848;2023-04-25T00:55:34;14.70;45.60
2439;DHT22;14509;47.992;7.848;2023-04-25T00:57:36;14.60;45.70
2439;DHT22;14509;47.992;7.848;2023-04-25T00:59:41;14.60;45.90
2439;DHT22;14509;47.992;7.848;2023-04-25T01:01:45;14.50;46.00
2439;DHT22;14509;47.992;7.848;2023-04-25T01:03:47;14.60;46.10
2439;DHT22;14509;47.992;7.848;2023-04-25T01:05:51;14.60;46.40
2439;DHT22;14509;47.992;7.848;2023-04-25T01:07:53;14.50;46.40
2439;DHT22;14509;47.992;7.848;2023-04-25T01:09:57;14.40;46.30
2439;DHT22;14509;47.992;7.848;2023-04-25T01:11:59;14.40;46.40
2439;DHT22;14509;47.992;7.848;2023-04-25T01:14:02;14.30;46.60
2439;DHT22;14509;47.992;7.848;2023-04-25T01:16:04;14.40;46.90
2439;DHT22;14509;47.992;7.848;2023-04-25T01:18:07;14.20;47.30
2439;DHT22;14509;47.992;7.848;2023-04-25T01:20:09;14.20;47.50
2439;DHT22;14509;47.992;7.848;2023-04-25T01:22:14;14.10;47.60
2439;DHT22;14509;47.992;7.848;2023-04-25T01:24:16;14.10;47.70
2439;DHT22;14509;47.992;7.848;2023-04-25T01:26:18;14.10;48.00
2439;DHT22;14509;47.992;7.848;2023-04-25T01:28:22;14.00;48.00
2439;DHT22;14509;47.992;7.848;2023-04-25T01:30:25;14.30;48.20
2439;DHT22;14509;47.992;7.848;2023-04-25T01:32:28;14.00;48.10
2439;DHT22;14509;47.992;7.848;2023-04-25T01:34:30;14.00;48.10
2439;DHT22;14509;47.992;7.848;2023-04-25T01:36:32;13.90;48.10
2439;DHT22;14509;47.992;7.848;2023-04-25T01:38:36;14.00;48.20
2439;DHT22;14509;47.992;7.848;2023-04-25T01:40:40;13.90;48.20
2439;DHT22;14509;47.992;7.848;2023-04-25T01:42:43;14.00;48.30
2439;DHT22;14509;47.992;7.848;2023-04-25T01:44:46;14.10;48.30
2439;DHT22;14509;47.992;7.848;2023-04-25T01:46:48;14.10;48.20
2439;DHT22;14509;47.992;7.848;2023-04-25T01:48:50;14.30;48.10
2439;DHT22;14509;47.992;7.848;2023-04-25T01:50:52;14.20;47.90
2439;DHT22;14509;47.992;7.848;2023-04-25T01:52:54;14.20;47.60
2439;DHT22;14509;47.992;7.848;2023-04-25T01:54:59;14.30;47.60
2439;DHT22;14509;47.992;7.848;2023-04-25T01:57:04;14.30;47.40
2439;DHT22;14509;47.992;7.848;2023-04-25T01:59:09;14.40;47.20
2439;DHT22;14509;47.992;7.848;2023-04-25T02:01:40;14.40;47.10
2439;DHT22;14509;47.992;7.848;2023-04-25T02:03:54;14.30;46.80
2439;DHT22;14509;47.992;7.848;2023-04-25T02:06:02;14.40;46.80
2439;DHT22;14509;47.992;7.848;2023-04-25T02:08:07;14.50;46.60
2439;DHT22;14509;47.992;7.848;2023-04-25T02:10:11;14.60;46.60
2439;DHT22;14509;47.992;7.848;2023-04-25T02:12:26;14.90;46.60
2439;DHT22;14509;47.992;7.848;2023-04-25T02:14:29;14.50;46.10
2439;DHT22;14509;47.992;7.848;2023-04-25T02:16:36;14.60;46.10
2439;DHT22;14509;47.992;7.848;2023-04-25T02:18:41;14.60;46.00
2439;DHT22;14509;47.992;7.848;2023-04-25T02:20:43;14.60;45.90
2439;DHT22;14509;47.992;7.848;2023-04-25T02:22:45;14.60;45.90
2439;DHT22;14509;47.992;7.848;2023-04-25T02:24:47;14.60;46.40
2439;DHT22;14509;47.992;7.848;2023-04-25T02:26:51;14.60;45.60
2439;DHT22;14509;47.992;7.848;2023-04-25T02:28:53;14.60;45.50
2439;DHT22;14509;47.992;7.848;2023-04-25T02:30:55;14.70;45.60
2439;DHT22;14509;47.992;7.848;2023-04-25T02:32:59;14.60;45.40
2439;DHT22;14509;47.992;7.848;2023-04-25T02:35:01;14.60;45.40
2439;DHT22;14509;47.992;7.848;2023-04-25T02:37:04;14.70;45.50
2439;DHT22;14509;47.992;7.848;2023-04-25T02:39:06;14.70;45.60
2439;DHT22;14509;47.992;7.848;2023-04-25T02:41:08;14.70;45.40
2439;DHT22;14509;47.992;7.848;2023-04-25T02:43:12;14.70;45.40
2439;DHT22;14509;47.992;7.848;2023-04-25T02:45:14;14.70;45.40
2439;DHT22;14509;47.992;7.848;2023-04-25T02:47:16;14.70;45.40
2439;DHT22;14509;47.992;7.848;2023-04-25T02:49:17;15.10;45.70
2439;DHT22;14509;47.992;7.848;2023-04-25T02:51:19;14.80;45.40
2439;DHT22;14509;47.992;7.848;2023-04-25T02:53:21;14.80;45.40
2439;DHT22;14509;47.992;7.848;2023-04-25T02:55:26;14.80;45.30
2439;DHT22;14509;47.992;7.848;2023-04-25T02:57:28;14.80;45.20
2439;DHT22;14509;47.992;7.848;2023-04-25T02:59:32;14.80;45.10
2439;DHT22;14509;47.992;7.848;2023-04-25T03:01:34;14.80;44.90
2439;DHT22;14509;47.992;7.848;2023-04-25T03:03:35;14.80;44.90
2439;DHT22;14509;47.992;7.848;2023-04-25T03:05:37;14.80;44.90
2439;DHT22;14509;47.992;7.848;2023-04-25T03:07:40;14.80;44.80
2439;DHT22;14509;47.992;7.848;2023-04-25T03:09:44;14.80;44.80
2439;DHT22;14509;47.992;7.848;2023-04-25T03:11:47;14.70;44.70
2439;DHT22;14509;47.992;7.848;2023-04-25T03:13:48;14.70;44.60
2439;DHT22;14509;47.992;7.848;2023-04-25T03:15:52;14.80;44.50
2439;DHT22;14509;47.992;7.848;2023-04-25T03:17:54;14.70;44.40
2439;DHT22;14509;47.992;7.848;2023-04-25T03:19:58;14.80;44.30
2439;DHT22;14509;47.992;7.848;2023-04-25T03:22:00;14.90;44.30
2439;DHT22;14509;47.992;7.848;2023-04-25T03:24:04;14.80;44.10
2439;DHT22;14509;47.992;7.848;2023-04-25T03:26:06;14.80;44.10
2439;DHT22;14509;47.992;7.848;2023-04-25T03:28:08;14.80;43.90
2439;DHT22;14509;47.992;7.848;2023-04-25T03:30:10;14.80;43.80
2439;DHT22;14509;47.992;7.848;2023-04-25T03:32:14;14.80;43.70
2439;DHT22;14509;47.992;7.848;2023-04-25T03:34:16;15.00;43.80
2439;DHT22;14509;47.992;7.848;2023-04-25T03:36:18;14.80;43.40
2439;DHT22;14509;47.992;7.848;2023-04-25T03:38:20;14.80;43.40
2439;DHT22;14509;47.992;7.848;2023-04-25T03:40:22;14.80;43.30
2439;DHT22;14509;47.992;7.848;2023-04-25T03:42:47;14.80;43.20
2439;DHT22;14509;47.992;7.848;2023-04-25T03:44:49;14.80;43.10
2439;DHT22;14509;47.992;7.848;2023-04-25T03:46:51;14.80;43.10
2439;DHT22;14509;47.992;7.848;2023-04-25T03:48:54;14.70;43.00
2439;DHT22;14509;47.992;7.848;2023-04-25T03:51:13;14.70;43.10
2439;DHT22;14509;47.992;7.848;2023-04-25T03:53:18;14.60;43.10
2439;DHT22;14509;47.992;7.848;2023-04-25T03:55:40;14.50;43.20
2439;DHT22;14509;47.992;7.848;2023-04-25T03:57:46;14.40;43.30
2439;DHT22;14509;47.992;7.848;2023-04-25T03:59:48;14.30;43.60
2439;DHT22;14509;47.992;7.848;2023-04-25T04:01:50;14.20;43.80
2439;DHT22;14509;47.992;7.848;2023-04-25T04:03:54;14.20;44.00
2439;DHT22;14509;47.992;7.848;2023-04-25T04:05:56;14.00;44.90
2439;DHT22;14509;47.992;7.848;2023-04-25T04:07:58;14.00;44.40
2439;DHT22;14509;47.992;7.848;2023-04-25T04:10:01;14.00;44.80
2439;DHT22;14509;47.992;7.848;2023-04-25T04:12:09;13.80;45.40
2439;DHT22;14509;47.992;7.848;2023-04-25T04:14:14;13.80;45.80
2439;DHT22;14509;47.992;7.848;2023-04-25T04:16:19;13.80;46.00
2439;DHT22;14509;47.992;7.848;2023-04-25T04:18:22;13.70;46.30
2439;DHT22;14509;47.992;7.848;2023-04-25T04:20:25;13.80;46.50
2439;DHT22;14509;47.992;7.848;2023-04-25T04:22:27;13.70;46.70
2439;DHT22;14509;47.992;7.848;2023-04-25T04:24:34;13.70;46.70
2439;DHT22;14509;47.992;7.848;2023-04-25T04:26:39;13.70;46.90
2439;DHT22;14509;47.992;7.848;2023-04-25T04:28:54;13.70;47.00
2439;DHT22;14509;47.992;7.848;2023-04-25T04:31:04;13.80;47.20
2439;DHT22;14509;47.992;7.848;2023-04-25T04:33:08;13.80;47.70
2439;DHT22;14509;47.992;7.848;2023-04-25T04:35:10;13.80;47.10
2439;DHT22;14509;47.992;7.848;2023-04-25T04:37:15;13.80;47.20
2439;DHT22;14509;47.992;7.848;2023-04-25T04:39:18;13.80;47.10
2439;DHT22;14509;47.992;7.848;2023-04-25T04:41:35;13.80;47.10
2439;DHT22;14509;47.992;7.848;2023-04-25T04:44:00;13.80;47.00
2439;DHT22;14509;47.992;7.848;2023-04-25T04:46:23;13.90;47.00
2439;DHT22;14509;47.992;7.848;2023-04-25T04:48:35;13.90;46.90
2439;DHT22;14509;47.992;7.848;2023-04-25T04:51:00;13.90;46.90
2439;DHT22;14509;47.992;7.848;2023-04-25T04:53:22;14.00;47.00
2439;DHT22;14509;47.992;7.848;2023-04-25T04:55:42;14.00;46.80
2439;DHT22;14509;47.992;7.848;2023-04-25T04:58:03;14.00;46.80
2439;DHT22;14509;47.992;7.848;2023-04-25T05:00:27;14.00;46.80
2439;DHT22;14509;47.992;7.848;2023-04-25T05:03:05;13.90;46.70
2439;DHT22;14509;47.992;7.848;2023-04-25T05:05:22;14.10;46.80
2439;DHT22;14509;47.992;7.848;2023-04-25T05:07:43;14.10;46.80
2439;DHT22;14509;47.992;7.848;2023-04-25T05:10:04;14.20;46.80
2439;DHT22;14509;47.992;7.848;2023-04-25T05:12:17;14.20;46.80
2439;DHT22;14509;47.992;7.848;2023-04-25T05:14:22;14.30;46.70
2439;DHT22;14509;47.992;7.848;2023-04-25T05:16:39;14.30;46.60
2439;DHT22;14509;47.992;7.848;2023-04-25T05:19:10;14.30;46.80
2439;DHT22;14509;47.992;7.848;2023-04-25T05:21:36;14.40;47.20
2439;DHT22;14509;47.992;7.848;2023-04-25T05:23:47;14.40;47.50
2439;DHT22;14509;47.992;7.848;2023-04-25T05:26:20;14.40;48.70
2439;DHT22;14509;47.992;7.848;2023-04-25T05:28:42;14.30;49.80
2439;DHT22;14509;47.992;7.848;2023-04-25T05:31:03;14.30;51.20
2439;DHT22;14509;47.992;7.848;2023-04-25T05:33:16;13.90;51.80
2439;DHT22;14509;47.992;7.848;2023-04-25T05:35:19;13.80;52.60
2439;DHT22;14509;47.992;7.848;2023-04-25T05:37:22;13.60;52.70
2439;DHT22;14509;47.992;7.848;2023-04-25T05:39:37;13.50;53.00
2439;DHT22;14509;47.992;7.848;2023-04-25T05:41:48;13.60;53.50
2439;DHT22;14509;47.992;7.848;2023-04-25T05:44:13;13.40;54.00
2439;DHT22;14509;47.992;7.848;2023-04-25T05:46:22;13.30;53.80
2439;DHT22;14509;47.992;7.848;2023-04-25T05:49:00;13.10;53.80
2439;DHT22;14509;47.992;7.848;2023-04-25T05:51:20;13.00;54.30
2439;DHT22;14509;47.992;7.848;2023-04-25T05:53:22;12.90;55.30
2439;DHT22;14509;47.992;7.848;2023-04-25T05:55:31;12.80;55.90
2439;DHT22;14509;47.992;7.848;2023-04-25T05:57:37;12.80;56.70
2439;DHT22;14509;47.992;7.848;2023-04-25T05:59:42;12.40;55.80
2439;DHT22;14509;47.992;7.848;2023-04-25T06:01:44;12.30;56.50
2439;DHT22;14509;47.992;7.848;2023-04-25T06:03:46;12.30;56.80
2439;DHT22;14509;47.992;7.848;2023-04-25T06:05:48;12.20;56.80
2439;DHT22;14509;47.992;7.848;2023-04-25T06:07:51;12.00;56.70
2439;DHT22;14509;47.992;7.848;2023-04-25T06:09:53;12.00;57.00
2439;DHT22;14509;47.992;7.848;2023-04-25T06:11:55;11.90;57.20
2439;DHT22;14509;47.992;7.848;2023-04-25T06:13:58;12.00;57.30
2439;DHT22;14509;47.992;7.848;2023-04-25T06:16:00;12.20;57.50
2439;DHT22;14509;47.992;7.848;2023-04-25T06:18:03;12.00;57.30
2439;DHT22;14509;47.992;7.848;2023-04-25T06:20:06;11.90;56.80
2439;DHT22;14509;47.992;7.848;2023-04-25T06:22:09;12.00;57.10
2439;DHT22;14509;47.992;7.848;2023-04-25T06:24:14;12.00;57.10
2439;DHT22;14509;47.992;7.848;2023-04-25T06:26:16;12.00;57.00
2439;DHT22;14509;47.992;7.848;2023-04-25T06:28:20;12.00;57.10
2439;DHT22;14509;47.992;7.848;2023-04-25T06:30:24;12.00;56.90
2439;DHT22;14509;47.992;7.848;2023-04-25T06:32:30;12.00;57.00
2439;DHT22;14509;47.992;7.848;2023-04-25T06:34:34;12.10;57.10
2439;DHT22;14509;47.992;7.848;2023-04-25T06:36:39;12.10;56.60
2439;DHT22;14509;47.992;7.848;2023-04-25T06:38:47;12.10;56.90
2439;DHT22;14509;47.992;7.848;2023-04-25T06:41:02;12.10;56.80
2439;DHT22;14509;47.992;7.848;2023-04-25T06:43:13;12.10;57.10
2439;DHT22;14509;47.992;7.848;2023-04-25T06:45:45;12.20;57.20
2439;DHT22;14509;47.992;7.848;2023-04-25T06:47:56;11.90;57.00
2439;DHT22;14509;47.992;7.848;2023-04-25T06:50:07;12.20;56.80
2439;DHT22;14509;47.992;7.848;2023-04-25T06:52:21;12.20;57.00
2439;DHT22;14509;47.992;7.848;2023-04-25T06:54:30;12.20;57.30
2439;DHT22;14509;47.992;7.848;2023-04-25T06:56:40;12.20;57.60
2439;DHT22;14509;47.992;7.848;2023-04-25T06:58:48;12.30;57.70
2439;DHT22;14509;47.992;7.848;2023-04-25T07:01:08;12.40;57.70
2439;DHT22;14509;47.992;7.848;2023-04-25T07:03:11;12.40;57.40
2439;DHT22;14509;47.992;7.848;2023-04-25T07:05:22;12.40;57.40
2439;DHT22;14509;47.992;7.848;2023-04-25T07:07:40;12.40;57.50
2439;DHT22;14509;47.992;7.848;2023-04-25T07:09:45;12.20;57.00
2439;DHT22;14509;47.992;7.848;2023-04-25T07:11:53;12.20;57.60
2439;DHT22;14509;47.992;7.848;2023-04-25T07:13:57;12.10;57.90
2439;DHT22;14509;47.992;7.848;2023-04-25T07:16:01;12.10;58.40
2439;DHT22;14509;47.992;7.848;2023-04-25T07:18:14;12.10;58.60
2439;DHT22;14509;47.992;7.848;2023-04-25T07:20:18;12.10;58.80
2439;DHT22;14509;47.992;7.848;2023-04-25T07:22:25;12.20;58.60
2439;DHT22;14509;47.992;7.848;2023-04-25T07:24:38;12.20;58.30
2439;DHT22;14509;47.992;7.848;2023-04-25T07:26:52;12.10;58.40
2439;DHT22;14509;47.992;7.848;2023-04-25T07:29:09;12.10;58.60
2439;DHT22;14509;47.992;7.848;2023-04-25T07:31:13;12.10;59.10
2439;DHT22;14509;47.992;7.848;2023-04-25T07:33:34;12.10;59.30
2439;DHT22;14509;47.992;7.848;2023-04-25T07:35:41;12.20;59.20
2439;DHT22;14509;47.992;7.848;2023-04-25T07:37:57;12.10;59.10
2439;DHT22;14509;47.992;7.848;2023-04-25T07:40:05;12.10;59.10
2439;DHT22;14509;47.992;7.848;2023-04-25T07:42:21;12.00;59.40
2439;DHT22;14509;47.992;7.848;2023-04-25T07:44:31;12.00;59.50
2439;DHT22;14509;47.992;7.848;2023-04-25T07:46:40;12.00;60.30
2439;DHT22;14509;47.992;7.848;2023-04-25T07:48:53;12.00;59.80
2439;DHT22;14509;47.992;7.848;2023-04-25T07:50:57;12.00;60.00
2439;DHT22;14509;47.992;7.848;2023-04-25T07:53:04;12.10;60.50
2439;DHT22;14509;47.992;7.848;2023-04-25T07:55:19;12.20;60.80
2439;DHT22;14509;47.992;7.848;2023-04-25T07:57:38;12.30;60.50
2439;DHT22;14509;47.992;7.848;2023-04-25T07:59:46;12.40;61.00
2439;DHT22;14509;47.992;7.848;2023-04-25T08:01:56;12.50;59.90
2439;DHT22;14509;47.992;7.848;2023-04-25T08:04:12;12.60;59.40
2439;DHT22;14509;47.992;7.848;2023-04-25T08:06:43;12.60;59.40
2439;DHT22;14509;47.992;7.848;2023-04-25T08:08:52;12.70;59.70
2439;DHT22;14509;47.992;7.848;2023-04-25T08:11:35;12.80;59.70
2439;DHT22;14509;47.992;7.848;2023-04-25T08:14:38;12.90;59.50
2439;DHT22;14509;47.992;7.848;2023-04-25T08:16:46;13.30;59.00
2439;DHT22;14509;47.992;7.848;2023-04-25T08:39:55;13.40;56.60
2439;DHT22;14509;47.992;7.848;2023-04-25T08:43:13;13.40;56.50
2439;DHT22;14509;47.992;7.848;2023-04-25T08:57:28;13.70;56.00
2439;DHT22;14509;47.992;7.848;2023-04-25T08:59:39;13.70;55.60
2439;DHT22;14509;47.992;7.848;2023-04-25T09:01:54;13.70;55.20
2439;DHT22;14509;47.992;7.848;2023-04-25T09:04:07;13.70;55.40
2439;DHT22;14509;47.992;7.848;2023-04-25T09:06:23;13.80;55.50
2439;DHT22;14509;47.992;7.848;2023-04-25T09:08:42;13.90;55.50
2439;DHT22;14509;47.992;7.848;2023-04-25T09:10:59;14.00;55.00
2439;DHT22;14509;47.992;7.848;2023-04-25T09:13:30;14.10;54.70
2439;DHT22;14509;47.992;7.848;2023-04-25T09:16:03;14.20;54.80
2439;DHT22;14509;47.992;7.848;2023-04-25T09:18:28;14.30;54.80
2439;DHT22;14509;47.992;7.848;2023-04-25T09:20:45;14.40;54.80
2439;DHT22;14509;47.992;7.848;2023-04-25T09:23:08;14.50;54.60
2439;DHT22;14509;47.992;7.848;2023-04-25T09:25:19;14.60;54.00
2439;DHT22;14509;47.992;7.848;2023-04-25T09:27:28;14.70;53.90
2439;DHT22;14509;47.992;7.848;2023-04-25T09:29:45;14.80;53.90
2439;DHT22;14509;47.992;7.848;2023-04-25T09:31:52;14.40;53.20
2439;DHT22;14509;47.992;7.848;2023-04-25T09:34:05;14.90;53.10
2439;DHT22;14509;47.992;7.848;2023-04-25T09:36:37;15.00;53.30
2439;DHT22;14509;47.992;7.848;2023-04-25T09:39:02;15.20;52.50
2439;DHT22;14509;47.992;7.848;2023-04-25T09:41:24;15.40;50.30
2439;DHT22;14509;47.992;7.848;2023-04-25T09:43:36;15.50;49.50
2439;DHT22;14509;47.992;7.848;2023-04-25T09:45:45;15.70;47.80
2439;DHT22;14509;47.992;7.848;2023-04-25T09:48:18;16.00;48.30
2439;DHT22;14509;47.992;7.848;2023-04-25T09:51:05;16.40;48.50
2439;DHT22;14509;47.992;7.848;2023-04-25T09:53:07;16.80;48.30
2439;DHT22;14509;47.992;7.848;2023-04-25T09:55:26;17.20;47.40
2439;DHT22;14509;47.992;7.848;2023-04-25T09:57:29;17.50;46.00
2439;DHT22;14509;47.992;7.848;2023-04-25T09:59:34;17.70;45.50
2439;DHT22;14509;47.992;7.848;2023-04-25T10:01:40;18.00;45.60
2439;DHT22;14509;47.992;7.848;2023-04-25T10:03:56;18.20;45.20
2439;DHT22;14509;47.992;7.848;2023-04-25T10:06:22;18.70;44.40
2439;DHT22;14509;47.992;7.848;2023-04-25T10:08:26;18.70;43.40
2439;DHT22;14509;47.992;7.848;2023-04-25T10:10:32;18.80;41.70
2439;DHT22;14509;47.992;7.848;2023-04-25T10:12:37;18.90;40.20
2439;DHT22;14509;47.992;7.848;2023-04-25T10:14:41;19.00;40.20
2439;DHT22;14509;47.992;7.848;2023-04-25T10:16:47;19.10;40.70
2439;DHT22;14509;47.992;7.848;2023-04-25T10:18:50;19.30;41.30
2439;DHT22;14509;47.992;7.848;2023-04-25T10:20:54;19.50;41.50
2439;DHT22;14509;47.992;7.848;2023-04-25T10:23:01;19.70;41.00
2439;DHT22;14509;47.992;7.848;2023-04-25T10:25:07;19.60;40.20
2439;DHT22;14509;47.992;7.848;2023-04-25T10:27:13;20.00;39.80
2439;DHT22;14509;47.992;7.848;2023-04-25T10:29:29;20.40;39.40
2439;DHT22;14509;47.992;7.848;2023-04-25T10:31:32;20.20;38.10
2439;DHT22;14509;47.992;7.848;2023-04-25T10:33:36;20.30;38.00
2439;DHT22;14509;47.992;7.848;2023-04-25T10:35:52;20.30;38.20
2439;DHT22;14509;47.992;7.848;2023-04-25T10:38:02;20.40;38.20
2439;DHT22;14509;47.992;7.848;2023-04-25T10:40:15;20.50;36.50
2439;DHT22;14509;47.992;7.848;2023-04-25T10:42:23;20.40;37.40
2439;DHT22;14509;47.992;7.848;2023-04-25T10:44:27;20.10;38.10
2439;DHT22;14509;47.992;7.848;2023-04-25T10:46:30;19.90;39.00
2439;DHT22;14509;47.992;7.848;2023-04-25T10:48:32;19.70;39.70
2439;DHT22;14509;47.992;7.848;2023-04-25T10:50:39;19.50;40.40
2439;DHT22;14509;47.992;7.848;2023-04-25T10:52:42;19.40;40.60
2439;DHT22;14509;47.992;7.848;2023-04-25T10:54:51;19.30;40.60
2439;DHT22;14509;47.992;7.848;2023-04-25T10:57:36;19.20;40.60
2439;DHT22;14509;47.992;7.848;2023-04-25T10:59:40;19.30;40.70
2439;DHT22;14509;47.992;7.848;2023-04-25T11:01:43;19.30;41.20
2439;DHT22;14509;47.992;7.848;2023-04-25T11:03:45;19.50;41.80
2439;DHT22;14509;47.992;7.848;2023-04-25T11:05:52;19.70;40.30
2439;DHT22;14509;47.992;7.848;2023-04-25T11:07:55;19.90;39.40
2439;DHT22;14509;47.992;7.848;2023-04-25T11:10:01;20.10;38.50
2439;DHT22;14509;47.992;7.848;2023-04-25T11:12:06;20.00;37.80
2439;DHT22;14509;47.992;7.848;2023-04-25T11:14:30;19.80;37.60
2439;DHT22;14509;47.992;7.848;2023-04-25T11:16:35;19.50;38.50
2439;DHT22;14509;47.992;7.848;2023-04-25T11:18:42;19.40;39.20
2439;DHT22;14509;47.992;7.848;2023-04-25T11:20:50;19.30;39.40
2439;DHT22;14509;47.992;7.848;2023-04-25T11:24:09;19.30;39.70
2439;DHT22;14509;47.992;7.848;2023-04-25T11:26:08;19.70;38.90
2439;DHT22;14509;47.992;7.848;2023-04-25T11:28:12;20.40;38.20
2439;DHT22;14509;47.992;7.848;2023-04-25T11:30:14;20.50;38.50
2439;DHT22;14509;47.992;7.848;2023-04-25T11:32:21;20.80;37.70
2439;DHT22;14509;47.992;7.848;2023-04-25T11:34:24;21.20;37.40
2439;DHT22;14509;47.992;7.848;2023-04-25T11:36:27;21.50;36.50
2439;DHT22;14509;47.992;7.848;2023-04-25T11:38:30;21.60;34.80
2439;DHT22;14509;47.992;7.848;2023-04-25T11:40:32;21.50;34.90
2439;DHT22;14509;47.992;7.848;2023-04-25T11:58:20;17.70;44.20
2439;DHT22;14509;47.992;7.848;2023-04-25T12:00:23;17.10;46.00
2439;DHT22;14509;47.992;7.848;2023-04-25T12:02:25;16.80;47.50
2439;DHT22;14509;47.992;7.848;2023-04-25T12:04:30;16.30;49.30
2439;DHT22;14509;47.992;7.848;2023-04-25T12:06:32;16.00;50.60
2439;DHT22;14509;47.992;7.848;2023-04-25T12:08:59;16.10;51.10
2439;DHT22;14509;47.992;7.848;2023-04-25T12:11:01;16.20;52.20
2439;DHT22;14509;47.992;7.848;2023-04-25T12:13:19;16.40;51.80
2439;DHT22;14509;47.992;7.848;2023-04-25T12:15:24;16.50;52.90
2439;DHT22;14509;47.992;7.848;2023-04-25T12:17:28;16.50;50.60
2439;DHT22;14509;47.992;7.848;2023-04-25T12:19:34;16.50;50.50
2439;DHT22;14509;47.992;7.848;2023-04-25T12:21:36;16.50;50.60
2439;DHT22;14509;47.992;7.848;2023-04-25T12:23:39;16.60;50.00
2439;DHT22;14509;47.992;7.848;2023-04-25T12:25:43;16.60;49.30
2439;DHT22;14509;47.992;7.848;2023-04-25T12:27:46;16.70;49.20
2439;DHT22;14509;47.992;7.848;2023-04-25T12:29:53;16.70;48.90
2439;DHT22;14509;47.992;7.848;2023-04-25T12:31:56;16.90;49.70
2439;DHT22;14509;47.992;7.848;2023-04-25T12:34:00;17.10;49.10
2439;DHT22;14509;47.992;7.848;2023-04-25T12:36:04;17.40;48.70
2439;DHT22;14509;47.992;7.848;2023-04-25T12:38:11;17.70;46.70
2439;DHT22;14509;47.992;7.848;2023-04-25T12:40:22;17.90;45.40
2439;DHT22;14509;47.992;7.848;2023-04-25T12:42:25;17.90;44.30
2439;DHT22;14509;47.992;7.848;2023-04-25T12:44:27;18.10;44.30
2439;DHT22;14509;47.992;7.848;2023-04-25T12:46:35;18.50;44.00
2439;DHT22;14509;47.992;7.848;2023-04-25T12:48:37;18.70;42.90
2439;DHT22;14509;47.992;7.848;2023-04-25T12:50:40;19.00;42.30
2439;DHT22;14509;47.992;7.848;2023-04-25T12:52:42;19.40;41.30
2439;DHT22;14509;47.992;7.848;2023-04-25T12:54:44;19.70;40.90
2439;DHT22;14509;47.992;7.848;2023-04-25T12:56:47;20.10;40.20
2439;DHT22;14509;47.992;7.848;2023-04-25T12:58:49;20.40;39.20
2439;DHT22;14509;47.992;7.848;2023-04-25T13:00:51;20.60;38.70
2439;DHT22;14509;47.992;7.848;2023-04-25T13:02:55;20.90;38.20
2439;DHT22;14509;47.992;7.848;2023-04-25T13:04:57;21.30;37.20
2439;DHT22;14509;47.992;7.848;2023-04-25T13:07:03;21.60;36.00
2439;DHT22;14509;47.992;7.848;2023-04-25T15:47:24;14.50;51.40
2439;DHT22;14509;47.992;7.848;2023-04-25T15:49:26;14.70;51.00
2439;DHT22;14509;47.992;7.848;2023-04-25T15:51:28;14.80;50.70
2439;DHT22;14509;47.992;7.848;2023-04-25T15:53:31;15.20;50.80
2439;DHT22;14509;47.992;7.848;2023-04-25T15:55:33;15.10;50.70
2439;DHT22;14509;47.992;7.848;2023-04-25T15:57:37;15.10;50.70
2439;DHT22;14509;47.992;7.848;2023-04-25T15:59:41;15.30;50.80
2439;DHT22;14509;47.992;7.848;2023-04-25T16:01:43;15.30;50.70
2439;DHT22;14509;47.992;7.848;2023-04-25T16:03:47;15.70;51.00
2439;DHT22;14509;47.992;7.848;2023-04-25T16:05:49;15.40;50.80
2439;DHT22;14509;47.992;7.848;2023-04-25T16:07:52;15.60;51.20
2439;DHT22;14509;47.992;7.848;2023-04-25T16:09:58;15.50;51.30
2439;DHT22;14509;47.992;7.848;2023-04-25T16:12:00;15.70;52.20
2439;DHT22;14509;47.992;7.848;2023-04-25T16:14:06;16.50;52.70
2439;DHT22;14509;47.992;7.848;2023-04-25T16:16:14;17.50;50.50
2439;DHT22;14509;47.992;7.848;2023-04-25T16:18:16;18.20;46.80
2439;DHT22;14509;47.992;7.848;2023-04-25T16:20:19;18.50;45.80
2439;DHT22;14509;47.992;7.848;2023-04-25T16:22:24;18.70;45.00
2439;DHT22;14509;47.992;7.848;2023-04-25T16:24:29;18.70;44.20
2439;DHT22;14509;47.992;7.848;2023-04-25T16:26:32;18.60;43.90
2439;DHT22;14509;47.992;7.848;2023-04-25T16:28:34;18.50;43.70
2439;DHT22;14509;47.992;7.848;2023-04-25T16:30:36;18.30;43.90
2439;DHT22;14509;47.992;7.848;2023-04-25T16:32:40;18.20;43.70
2439;DHT22;14509;47.992;7.848;2023-04-25T16:34:42;18.00;43.80
2439;DHT22;14509;47.992;7.848;2023-04-25T16:36:46;17.70;44.00
2439;DHT22;14509;47.992;7.848;2023-04-25T16:38:51;17.50;43.80
2439;DHT22;14509;47.992;7.848;2023-04-25T16:40:53;17.30;43.90
2439;DHT22;14509;47.992;7.848;2023-04-25T16:42:58;17.10;44.10
2439;DHT22;14509;47.992;7.848;2023-04-25T16:45:03;17.70;44.60
2439;DHT22;14509;47.992;7.848;2023-04-25T16:47:08;16.90;44.40
2439;DHT22;14509;47.992;7.848;2023-04-25T16:49:11;16.70;44.80
2439;DHT22;14509;47.992;7.848;2023-04-25T16:51:15;16.60;44.80
2439;DHT22;14509;47.992;7.848;2023-04-25T16:53:20;16.60;45.20
2439;DHT22;14509;47.992;7.848;2023-04-25T16:55:22;16.50;45.90
2439;DHT22;14509;47.992;7.848;2023-04-25T16:57:25;16.40;46.90
2439;DHT22;14509;47.992;7.848;2023-04-25T16:59:27;16.30;47.10
2439;DHT22;14509;47.992;7.848;2023-04-25T17:01:29;16.20;47.90
2439;DHT22;14509;47.992;7.848;2023-04-25T17:03:34;16.30;49.30
2439;DHT22;14509;47.992;7.848;2023-04-25T17:05:36;16.20;50.10
2439;DHT22;14509;47.992;7.848;2023-04-25T17:07:39;15.90;50.20